»·PEaware :: SWA6206 KLAS-KSNA

SWA6206 :: KLAS-KSNA

FLIGHT INFORMATION

Flight Status: Arrived
Operator:
Southwest Airlines
More flights by this operator :: More flights under this callsign
Pilot: Cody B. (17747)
Aircraft: BOEING 737-800
(B738)
More flights by this aircraft type
Origin: KLAS McCarran Intl
United States
Destination: KSNA John Wayne-Orange Co
United States
More flights between these airports :: More routes between these airports
Route: +BOACH8 WHIGG FEYLA DSNEE4
File this flight plan on PilotEdge
Remarks: PBN / A1B1C1D1S1S2 DOF / 181011 REG / N8301J CODE / AB5ADE OPR / SWA PER / C RMK / TCAS SIMBRIEF
Altitude:
(Current/Filed)
28,000ft
Speed:
(Current/Filed)
470kts
Departed: 11-Oct-18 11:43 AM
Arrived: 11-Oct-18 12:28 PM
Distance/Time
Traveled:
197nm/0:45
Distance/Time
To Go:
Arrived

Flight Plot

Page will automatically refresh every two minutes.

Flight plan parsing failed; only flown route is shown


Map Options




Map Legend


Flown Route
Filed Route
Departure Airport
Arrival Airport
Navaid (VOR, NDB)
Fix

Horizontal Profiles

Position Reports

Time Latitude Longitude Heading Altitude Ground
Speed
11-Oct-18 11:21 36.079857 -115.145794 310 2189ft 0kts
11-Oct-18 11:22 36.079857 -115.145794 310 2189ft 0kts
11-Oct-18 11:23 36.079857 -115.145794 310 2189ft 0kts
11-Oct-18 11:24 36.079857 -115.145794 310 2189ft 0kts
11-Oct-18 11:25 36.079857 -115.145794 310 2189ft 0kts
11-Oct-18 11:26 36.079857 -115.145794 310 2189ft 0kts
11-Oct-18 11:27 36.079857 -115.145794 310 2189ft 0kts
11-Oct-18 11:28 36.079857 -115.145793 310 2189ft 0kts
11-Oct-18 11:29 36.079618 -115.145354 294 2189ft 2kts
11-Oct-18 11:30 36.079865 -115.144826 183 2189ft 1kts
11-Oct-18 11:31 36.079941 -115.144828 179 2189ft 0kts
11-Oct-18 11:32 36.079941 -115.144828 179 2189ft 0kts
11-Oct-18 11:33 36.079782 -115.144830 181 2189ft 1kts
11-Oct-18 11:34 36.078987 -115.144833 180 2189ft 0kts
11-Oct-18 11:35 36.078527 -115.144745 161 2189ft 5kts
11-Oct-18 11:36 36.077542 -115.143200 89 2189ft 6kts
11-Oct-18 11:37 36.077542 -115.140664 90 2189ft 7kts
11-Oct-18 11:38 36.077549 -115.138194 89 2189ft 7kts
11-Oct-18 11:39 36.077532 -115.135434 89 2189ft 9kts
11-Oct-18 11:40 36.077546 -115.131600 91 2189ft 13kts
11-Oct-18 11:41 36.077541 -115.126572 90 2189ft 16kts
11-Oct-18 11:42 36.077496 -115.121531 115 2189ft 7kts
11-Oct-18 11:43 36.077396 -115.121382 144 2189ft 0kts
11-Oct-18 11:44 36.076586 -115.121382 222 2189ft 6kts
11-Oct-18 11:45 36.076430 -115.133102 270 2189ft 114kts
11-Oct-18 11:46 36.077090 -115.186337 269 3722ft 166kts
11-Oct-18 11:47 36.066038 -115.255323 230 5086ft 259kts
11-Oct-18 11:48 35.998192 -115.289739 192 7007ft 275kts
11-Oct-18 11:49 35.922186 -115.307309 185 9447ft 286kts
11-Oct-18 11:50 35.840967 -115.314140 174 11833ft 320kts
11-Oct-18 11:51 35.751990 -115.303315 174 14845ft 328kts
11-Oct-18 11:52 35.664072 -115.324575 209 17633ft 338kts
11-Oct-18 11:53 35.596047 -115.405545 224 20171ft 344kts
11-Oct-18 11:54 35.530946 -115.492939 224 22361ft 352kts
11-Oct-18 11:55 35.465001 -115.581803 225 24475ft 357kts
11-Oct-18 11:56 35.400160 -115.669157 225 26326ft 361kts
11-Oct-18 11:57 35.334598 -115.757072 226 27664ft 364kts
11-Oct-18 11:58 35.266366 -115.848443 226 27959ft 368kts
11-Oct-18 11:59 35.196484 -115.940134 225 27961ft 373kts
11-Oct-18 12:00 35.124699 -116.030440 225 27973ft 377kts
11-Oct-18 12:01 35.052093 -116.121699 225 27958ft 380kts
11-Oct-18 12:02 34.978574 -116.213903 225 27964ft 381kts
11-Oct-18 12:03 34.905240 -116.305688 226 27953ft 381kts
11-Oct-18 12:04 34.839060 -116.389011 227 27933ft 381kts
11-Oct-18 12:05 34.766636 -116.481489 227 27930ft 381kts
11-Oct-18 12:06 34.696872 -116.570229 226 25696ft 359kts
11-Oct-18 12:07 34.621092 -116.645728 219 22998ft 351kts
11-Oct-18 12:08 34.556240 -116.708969 218 21286ft 346kts
11-Oct-18 12:09 34.484788 -116.781227 223 19808ft 342kts
11-Oct-18 12:10 34.417635 -116.860116 223 19016ft 340kts
11-Oct-18 12:11 34.349826 -116.938648 224 18217ft 339kts
11-Oct-18 12:12 34.282866 -117.015620 224 16462ft 337kts
11-Oct-18 12:13 34.198451 -117.092232 219 13950ft 328kts
11-Oct-18 12:14 34.141607 -117.145553 219 12176ft 323kts
11-Oct-18 12:15 34.074373 -117.208523 219 11048ft 298kts
11-Oct-18 12:16 34.013652 -117.265231 219 10075ft 284kts
11-Oct-18 12:17 33.957460 -117.317651 219 9114ft 266kts
11-Oct-18 12:18 33.903120 -117.368250 219 8107ft 247kts
11-Oct-18 12:19 33.853758 -117.414201 219 8028ft 237kts
11-Oct-18 12:20 33.819210 -117.474149 249 7811ft 237kts
11-Oct-18 12:21 33.801999 -117.541104 297 7659ft 235kts
11-Oct-18 12:22 33.834694 -117.608077 301 6511ft 232kts
11-Oct-18 12:23 33.863005 -117.665303 301 5511ft 227kts
11-Oct-18 12:24 33.885993 -117.728787 249 4316ft 215kts
11-Oct-18 12:25 33.842722 -117.762906 208 3665ft 195kts
11-Oct-18 12:26 33.796399 -117.792179 208 2659ft 192kts
11-Oct-18 12:27 33.752498 -117.820109 208 1656ft 181kts
11-Oct-18 12:28 33.716975 -117.842739 208 872ft 150kts
11-Oct-18 12:29 33.684214 -117.863450 207 160ft 145kts
11-Oct-18 12:30 33.669792 -117.872157 166 64ft 11kts
11-Oct-18 12:31 33.669084 -117.871382 104 64ft 1kts
11-Oct-18 12:32 33.669866 -117.870175 40 64ft 11kts
11-Oct-18 12:33 33.673086 -117.867280 46 64ft 21kts
11-Oct-18 12:34 33.676616 -117.864882 39 64ft 5kts
11-Oct-18 12:35 33.676495 -117.864216 118 64ft 0kts
11-Oct-18 12:36 33.676480 -117.864184 119 64ft 0kts

Navigation Log

Ident Type
Flight plan parsing failed, navigation log unavailable